Main page
METAR-TAF:

METAR-TAF

Airports :

Bahawalpur Airport

Bahawalpur, Pakistan

latitude: 29-20-53N, longitude: 71-43-04E, elevation: 119 m

METAR: missing

Time: 10:54 (05:54 UTC)

Forecast

The report was made 7 hours and 54 minutes ago, at 22:00 UTC
Forecast valid from 25 at 00 UTC to 25 at 18 UTC
Wind 10 kt from the Southwest
Visibility: 4000 m
Few clouds at a height of 12000 ft
smoke
Probability 30% :
Temporary
from 25 at 01 UTC to 25 at 05 UTC
Wind 5 kt from the Southwest
Visibility: 2000 m
mist

TAF: OPBW 242200Z 2500/2518 23010KT 4000 FU FEW120 TN28/2501Z TX39/2510Z PROB30 TEMPO 2501/2505 23005KT 2000 BR NSC

Weather observations and forecasts of more than 4000 airports (METAR and TAF reports).

The available stations are represented by yellow and red dots on the map.

Hover mouse over dot to see the name of the station.

Then click to see weather observations and forecasts.

To change the map : click on the green buttons with a black cross to zoom in, on the green button with a dash to zoom out, or on the green arrows for adjacent maps.


METAR-TAF: